createdAt,value
2022-10-28T00:00:36.759Z,4.93
2022-10-28T00:03:06.970Z,5.15
2022-10-28T00:05:37.795Z,4.82
2022-10-28T00:08:08.648Z,4.38
2022-10-28T00:10:44.071Z,4.97
2022-10-28T00:13:14.163Z,4.60
2022-10-28T00:15:47.092Z,4.63
2022-10-28T00:18:19.399Z,4.70
2022-10-28T00:20:49.416Z,4.70
2022-10-28T00:23:22.269Z,4.68
2022-10-28T00:25:54.915Z,4.60
2022-10-28T00:28:25.090Z,4.43
2022-10-28T00:31:06.241Z,4.82
2022-10-28T00:33:42.584Z,4.75
2022-10-28T00:36:16.351Z,4.75
2022-10-28T00:38:48.784Z,4.97
2022-10-28T00:41:27.741Z,4.90
2022-10-28T00:44:14.118Z,5.15
2022-10-28T00:46:49.400Z,5.30
2022-10-28T00:49:29.344Z,4.80
2022-10-28T00:52:05.304Z,4.38
2022-10-28T00:54:37.852Z,4.38
2022-10-28T00:57:18.147Z,4.47
2022-10-28T00:59:56.387Z,4.32
2022-10-28T01:02:26.599Z,4.47
2022-10-28T01:04:59.854Z,4.80
2022-10-28T01:07:30.380Z,4.80
2022-10-28T01:10:03.101Z,4.53
2022-10-28T01:12:50.468Z,4.60
2022-10-28T01:15:36.537Z,4.15
2022-10-28T01:18:22.731Z,4.78
2022-10-28T01:21:42.049Z,4.70
2022-10-28T01:24:37.004Z,4.55
2022-10-28T01:27:43.863Z,5.13
2022-10-28T01:30:19.912Z,4.18
2022-10-28T01:33:11.310Z,4.60
2022-10-28T01:35:52.506Z,5.43
2022-10-28T01:38:35.583Z,4.65
2022-10-28T01:41:16.027Z,5.10
2022-10-28T01:43:57.791Z,4.45
2022-10-28T01:46:41.718Z,5.22
2022-10-28T01:49:23.309Z,4.95
2022-10-28T01:51:59.981Z,4.68
2022-10-28T01:54:34.782Z,4.57
2022-10-28T01:57:09.800Z,4.57
2022-10-28T01:59:41.729Z,4.53
2022-10-28T02:02:11.840Z,4.70
2022-10-28T02:04:44.508Z,4.70
2022-10-28T02:07:15.633Z,4.80
2022-10-28T02:10:18.740Z,4.82
2022-10-28T02:12:56.710Z,4.55
2022-10-28T02:15:49.486Z,4.78
2022-10-28T02:18:38.047Z,4.88
2022-10-28T02:21:20.946Z,5.53
2022-10-28T02:24:02.118Z,5.22
2022-10-28T02:26:41.882Z,4.68
2022-10-28T02:29:22.325Z,5.65
2022-10-28T02:31:58.437Z,4.50
2022-10-28T02:34:35.130Z,4.70
2022-10-28T02:37:21.336Z,4.63
2022-10-28T02:40:02.112Z,4.60
2022-10-28T02:42:39.897Z,5.32
2022-10-28T02:45:18.350Z,5.05
2022-10-28T02:48:06.677Z,4.60
2022-10-28T02:50:40.859Z,5.32
2022-10-28T02:53:22.146Z,5.25
2022-10-28T02:56:02.388Z,4.57
2022-10-28T02:58:40.235Z,5.20
2022-10-28T03:01:15.735Z,5.72
2022-10-28T03:03:46.310Z,5.25
2022-10-28T03:09:18.742Z,5.32
2022-10-28T03:11:48.886Z,4.88
2022-10-28T03:14:19.059Z,4.43
2022-10-28T03:16:49.145Z,5.25
2022-10-28T03:19:19.308Z,5.13
2022-10-28T03:21:49.368Z,5.03
2022-10-28T03:27:10.936Z,5.07
2022-10-28T03:29:45.961Z,5.40
2022-10-28T03:32:16.833Z,5.10
2022-10-28T03:34:47.464Z,4.57
2022-10-28T03:37:17.655Z,5.47
2022-10-28T03:39:52.843Z,5.13
2022-10-28T03:42:22.862Z,4.95
2022-10-28T03:44:55.460Z,4.45
2022-10-28T03:47:31.176Z,5.13
2022-10-28T03:50:01.446Z,5.25
2022-10-28T03:52:34.142Z,5.30
2022-10-28T03:55:11.189Z,5.45
2022-10-28T03:57:41.307Z,4.88
2022-10-28T04:00:13.194Z,5.53
2022-10-28T04:02:45.455Z,4.90
2022-10-28T04:05:15.563Z,5.05
2022-10-28T04:07:45.655Z,5.38
2022-10-28T04:10:21.533Z,5.07
2022-10-28T04:12:51.794Z,5.72
2022-10-28T04:15:22.049Z,5.22
2022-10-28T04:17:52.118Z,5.32
2022-10-28T04:20:22.242Z,5.15
2022-10-28T04:22:56.066Z,4.95
2022-10-28T04:25:31.229Z,5.20
2022-10-28T04:28:04.345Z,5.32
2022-10-28T04:30:34.415Z,5.07
2022-10-28T04:33:04.507Z,5.18
2022-10-28T04:35:34.610Z,5.40
2022-10-28T04:38:04.646Z,4.57
2022-10-28T04:40:44.448Z,5.13
2022-10-28T04:43:17.331Z,5.00
2022-10-28T04:45:48.759Z,4.88
2022-10-28T04:48:18.875Z,5.50
2022-10-28T04:50:49.616Z,5.30
2022-10-28T04:53:25.525Z,5.25
2022-10-28T04:56:02.214Z,5.18
2022-10-28T04:58:32.407Z,4.57
2022-10-28T05:01:02.495Z,5.35
2022-10-28T05:03:32.595Z,5.43
2022-10-28T05:06:02.746Z,5.43
2022-10-28T05:08:32.809Z,5.22
2022-10-28T05:11:07.865Z,5.28
2022-10-28T05:13:38.015Z,5.05
2022-10-28T05:16:09.594Z,5.13
2022-10-28T05:18:39.763Z,5.30
2022-10-28T05:21:09.847Z,7.18
2022-10-28T05:23:42.531Z,5.60
2022-10-28T05:26:17.577Z,5.40
2022-10-28T05:28:51.136Z,5.28
2022-10-28T05:31:21.738Z,4.75
2022-10-28T05:33:51.877Z,5.88
2022-10-28T05:36:24.780Z,5.50
2022-10-28T05:38:54.856Z,4.70
2022-10-28T05:41:27.626Z,4.80
2022-10-28T05:43:57.726Z,5.47
2022-10-28T05:46:29.929Z,4.90
2022-10-28T05:49:00.157Z,4.90
2022-10-28T05:51:30.304Z,5.00
2022-10-28T05:54:00.424Z,4.57
2022-10-28T05:56:38.322Z,4.97
2022-10-28T05:59:08.427Z,5.40
2022-10-28T06:01:38.563Z,5.05
2022-10-28T06:04:08.901Z,5.05
2022-10-28T06:06:41.856Z,5.50
2022-10-28T06:09:11.928Z,4.60
2022-10-28T06:11:43.048Z,5.15
2022-10-28T06:14:13.172Z,4.32
2022-10-28T06:16:43.213Z,5.50
2022-10-28T06:19:13.313Z,4.72
2022-10-28T06:21:43.431Z,5.15
2022-10-28T06:24:13.965Z,5.10
2022-10-28T06:26:48.822Z,5.43
2022-10-28T06:29:24.761Z,5.45
2022-10-28T06:32:00.769Z,4.95
2022-10-28T06:34:30.944Z,6.03
2022-10-28T06:37:01.039Z,5.40
2022-10-28T06:39:31.317Z,5.18
2022-10-28T06:42:03.944Z,5.28
2022-10-28T06:44:34.025Z,5.75
2022-10-28T06:47:05.629Z,5.47
2022-10-28T06:49:35.692Z,5.00
2022-10-28T06:52:06.066Z,5.18
2022-10-28T06:54:36.199Z,5.10
2022-10-28T06:57:14.304Z,5.03
2022-10-28T06:59:44.377Z,5.38
2022-10-28T07:02:17.614Z,5.20
2022-10-28T07:04:47.780Z,4.82
2022-10-28T07:07:18.142Z,5.43
2022-10-28T07:09:48.462Z,4.80
2022-10-28T07:12:21.097Z,5.45
2022-10-28T07:14:51.166Z,5.25
2022-10-28T07:17:21.246Z,5.50
2022-10-28T07:19:51.356Z,5.88
2022-10-28T07:22:25.769Z,5.30
2022-10-28T07:24:56.037Z,4.72
2022-10-28T07:27:28.780Z,5.63
2022-10-28T07:29:58.894Z,5.10
2022-10-28T07:32:29.000Z,5.10
2022-10-28T07:35:01.774Z,4.97
2022-10-28T07:37:34.361Z,5.13
2022-10-28T07:40:04.457Z,5.22
2022-10-28T07:42:40.202Z,5.15
2022-10-28T07:45:16.786Z,5.15
2022-10-28T07:47:59.991Z,5.03
2022-10-28T07:50:32.224Z,5.25
2022-10-28T07:53:03.039Z,5.30
2022-10-28T07:55:33.102Z,5.15
2022-10-28T07:58:05.814Z,5.53
2022-10-28T08:00:36.136Z,5.50
2022-10-28T08:03:06.680Z,5.10
2022-10-28T08:05:36.738Z,4.85
2022-10-28T08:08:09.466Z,4.95
2022-10-28T08:10:42.407Z,5.30
2022-10-28T08:13:15.041Z,5.25
2022-10-28T08:15:45.076Z,5.03
2022-10-28T08:18:15.110Z,4.93
2022-10-28T08:20:47.999Z,4.82
2022-10-28T08:23:18.524Z,4.65
2022-10-28T08:25:55.838Z,5.20
2022-10-28T08:28:28.713Z,5.50
2022-10-28T08:31:09.557Z,5.35
2022-10-28T08:33:40.840Z,5.32
2022-10-28T08:36:14.487Z,4.80
2022-10-28T08:38:46.568Z,5.75
2022-10-28T08:41:36.075Z,5.22
2022-10-28T08:44:46.184Z,5.18
2022-10-28T08:47:40.653Z,5.75
2022-10-28T08:50:18.501Z,5.03
2022-10-28T08:52:58.313Z,4.70
2022-10-28T08:55:33.530Z,4.60
2022-10-28T08:58:14.046Z,4.68
2022-10-28T09:00:52.265Z,4.88
2022-10-28T09:03:26.958Z,4.20
2022-10-28T09:06:07.217Z,4.38
2022-10-28T09:08:42.299Z,4.43
2022-10-28T09:11:46.270Z,4.70
2022-10-28T09:14:40.732Z,4.38
2022-10-28T09:17:21.277Z,4.63
2022-10-28T09:20:10.145Z,4.15
2022-10-28T09:23:00.553Z,5.00
2022-10-28T09:25:48.780Z,4.28
2022-10-28T09:28:39.956Z,4.47
2022-10-28T09:31:22.360Z,4.88
2022-10-28T09:34:17.732Z,5.03
2022-10-28T09:36:55.373Z,4.55
2022-10-28T09:39:30.849Z,4.82
2022-10-28T09:42:05.817Z,4.45
2022-10-28T09:44:45.701Z,4.60
2022-10-28T09:47:22.134Z,4.22
2022-10-28T09:50:04.379Z,4.85
2022-10-28T09:52:43.409Z,4.80
2022-10-28T09:55:26.427Z,4.63
2022-10-28T09:57:56.876Z,4.63
2022-10-28T10:00:27.321Z,4.30
2022-10-28T10:03:01.652Z,4.90
2022-10-28T10:05:40.334Z,4.50
2022-10-28T10:08:17.000Z,4.18
2022-10-28T10:10:55.427Z,4.35
2022-10-28T10:13:36.631Z,4.68
2022-10-28T10:16:20.830Z,4.32
2022-10-28T10:18:58.872Z,4.30
2022-10-28T10:21:57.779Z,4.35
2022-10-28T10:24:36.631Z,4.20
2022-10-28T10:27:22.110Z,4.20
2022-10-28T10:29:58.104Z,4.22
2022-10-28T10:32:33.357Z,3.90
2022-10-28T10:35:22.068Z,4.03
2022-10-28T10:37:58.174Z,4.20
2022-10-28T10:40:33.767Z,4.28
2022-10-28T10:43:34.310Z,4.32
2022-10-28T10:46:08.305Z,4.57
2022-10-28T10:48:40.849Z,4.57
2022-10-28T10:51:20.449Z,3.90
2022-10-28T10:54:00.870Z,4.47
2022-10-28T10:56:38.817Z,4.25
2022-10-28T10:59:22.976Z,3.65
2022-10-28T11:01:53.639Z,4.45
2022-10-28T11:04:28.478Z,4.15
2022-10-28T11:07:00.680Z,7.20
2022-10-28T11:09:40.199Z,4.18
2022-10-28T11:12:21.939Z,3.75
2022-10-28T11:15:04.145Z,4.03
2022-10-28T11:17:37.275Z,4.68
2022-10-28T11:20:29.917Z,4.22
2022-10-28T11:23:33.064Z,4.35
2022-10-28T11:26:20.787Z,4.70
2022-10-28T11:29:10.373Z,4.00
2022-10-28T11:32:23.614Z,4.30
2022-10-28T11:35:24.224Z,4.25
2022-10-28T11:38:12.049Z,4.13
2022-10-28T11:40:54.952Z,4.15
2022-10-28T11:43:48.682Z,4.38
2022-10-28T11:46:52.836Z,4.05
2022-10-28T11:50:03.479Z,4.68
2022-10-28T11:52:57.839Z,4.03
2022-10-28T11:55:38.033Z,4.45
2022-10-28T11:58:22.221Z,4.20
2022-10-28T12:01:22.282Z,4.43
2022-10-28T12:04:19.405Z,4.30
2022-10-28T12:07:24.989Z,4.40
2022-10-28T12:10:17.040Z,4.30
2022-10-28T12:12:57.267Z,3.78
2022-10-28T12:15:43.365Z,4.35
2022-10-28T12:18:28.906Z,4.43
2022-10-28T12:21:10.138Z,4.18
2022-10-28T12:23:44.255Z,4.68
2022-10-28T12:26:20.221Z,3.85
2022-10-28T12:28:56.534Z,4.13
2022-10-28T12:31:35.801Z,4.30
2022-10-28T12:34:20.447Z,4.57
2022-10-28T12:36:59.345Z,4.43
2022-10-28T12:39:44.781Z,4.25
2022-10-28T12:42:22.839Z,4.10
2022-10-28T12:44:56.792Z,4.60
2022-10-28T12:47:43.200Z,4.75
2022-10-28T12:50:32.758Z,4.53
2022-10-28T12:53:34.177Z,3.95
2022-10-28T12:56:16.497Z,4.40
2022-10-28T13:02:01.265Z,4.28
2022-10-28T13:04:32.222Z,3.78
2022-10-28T13:07:32.511Z,4.10
2022-10-28T13:13:40.654Z,4.57
2022-10-28T13:16:37.925Z,4.75
2022-10-28T13:19:41.007Z,4.15
2022-10-28T13:22:47.927Z,4.50
2022-10-28T13:25:40.560Z,4.70
2022-10-28T13:28:18.012Z,4.88
2022-10-28T13:31:07.786Z,4.55
2022-10-28T13:33:41.301Z,4.93
2022-10-28T13:36:20.366Z,4.47
2022-10-28T13:39:02.112Z,4.38
2022-10-28T13:59:55.450Z,4.90
2022-10-28T14:02:36.020Z,4.93
2022-10-28T14:05:10.267Z,5.03
2022-10-28T14:07:53.508Z,4.63
2022-10-28T14:10:29.729Z,4.30
2022-10-28T14:13:09.317Z,3.85
2022-10-28T14:15:44.524Z,4.30
2022-10-28T14:18:43.200Z,4.25
2022-10-28T14:21:14.988Z,4.78
2022-10-28T14:24:15.833Z,4.93
2022-10-28T14:27:34.489Z,5.15
2022-10-28T14:30:26.518Z,4.95
2022-10-28T14:33:26.599Z,4.85
2022-10-28T14:36:30.071Z,4.78
2022-10-28T14:39:42.697Z,5.00
2022-10-28T14:42:52.406Z,4.25
2022-10-28T14:45:38.847Z,4.50
2022-10-28T14:48:48.832Z,4.85
2022-10-28T14:51:26.563Z,5.05
2022-10-28T14:54:02.318Z,4.90
2022-10-28T14:56:34.674Z,5.07
2022-10-28T14:59:25.785Z,5.72
2022-10-28T15:02:13.361Z,5.75
2022-10-28T15:04:48.696Z,4.75
2022-10-28T15:07:23.806Z,6.13
2022-10-28T15:09:59.012Z,4.97
2022-10-28T15:12:32.270Z,4.93
2022-10-28T15:15:02.411Z,6.00
2022-10-28T15:17:43.899Z,5.53
2022-10-28T15:20:27.061Z,4.85
2022-10-28T15:23:16.475Z,4.88
2022-10-28T15:25:46.608Z,4.53
2022-10-28T15:28:17.335Z,4.80
2022-10-28T15:30:47.655Z,5.22
2022-10-28T15:33:32.520Z,4.60
2022-10-28T15:36:18.448Z,5.68
2022-10-28T15:38:51.316Z,5.78
2022-10-28T15:41:44.931Z,5.50
2022-10-28T15:44:45.624Z,5.57
2022-10-28T15:47:28.696Z,5.00
2022-10-28T15:50:26.033Z,5.63
2022-10-28T15:53:17.722Z,5.10
2022-10-28T15:56:06.607Z,5.10
2022-10-28T15:58:41.382Z,5.65
2022-10-28T16:01:30.084Z,4.93
2022-10-28T16:04:02.938Z,5.70
2022-10-28T16:06:38.934Z,6.38
2022-10-28T16:09:20.733Z,6.22
2022-10-28T16:11:59.186Z,5.88
2022-10-28T16:14:42.405Z,6.45
2022-10-28T16:17:23.120Z,7.07
2022-10-28T16:20:02.242Z,6.00
2022-10-28T16:22:40.210Z,6.68
2022-10-28T16:25:18.202Z,6.18
2022-10-28T16:27:54.955Z,7.10
2022-10-28T16:30:27.739Z,6.55
2022-10-28T16:32:59.105Z,6.95
2022-10-28T16:35:32.054Z,6.22
2022-10-28T16:38:04.734Z,6.00
2022-10-28T16:40:50.904Z,5.93
2022-10-28T16:43:23.961Z,7.10
2022-10-28T16:45:56.301Z,6.07
2022-10-28T16:48:29.345Z,7.13
2022-10-28T16:51:06.784Z,6.47
2022-10-28T16:53:42.762Z,6.88
2022-10-28T16:56:15.594Z,6.38
2022-10-28T16:58:46.897Z,6.30
2022-10-28T17:01:22.513Z,8.27
2022-10-28T17:03:52.774Z,7.28
2022-10-28T17:06:22.895Z,6.88
2022-10-28T17:09:03.972Z,6.78
2022-10-28T17:11:34.304Z,9.15
2022-10-28T17:14:07.500Z,8.85
2022-10-28T17:16:40.575Z,10.68
2022-10-28T17:19:13.372Z,7.95
2022-10-28T17:21:47.685Z,6.95
2022-10-28T17:24:24.527Z,6.63
2022-10-28T17:26:55.354Z,6.10
2022-10-28T17:29:28.254Z,6.30
2022-10-28T17:31:58.397Z,5.22
2022-10-28T17:34:30.930Z,8.57
2022-10-28T17:37:01.180Z,7.30
2022-10-28T17:39:33.926Z,7.05
2022-10-28T17:42:04.077Z,6.85
2022-10-28T17:44:34.322Z,7.60
2022-10-28T17:47:17.377Z,7.38
2022-10-28T17:49:57.574Z,6.18
2022-10-28T17:52:27.701Z,7.53
2022-10-28T17:55:03.468Z,7.28
2022-10-28T17:57:35.829Z,7.15
2022-10-28T18:00:13.457Z,9.38
2022-10-28T18:02:43.616Z,9.13
2022-10-28T18:05:13.899Z,7.93
2022-10-28T18:07:44.004Z,8.20
2022-10-28T18:10:17.755Z,8.60
2022-10-28T18:12:47.873Z,8.52
2022-10-28T18:15:26.202Z,7.40
2022-10-28T18:17:56.228Z,9.70
2022-10-28T18:20:26.335Z,9.15
2022-10-28T18:22:56.786Z,8.00
2022-10-28T18:25:29.845Z,7.15
2022-10-28T18:28:08.151Z,6.30
2022-10-28T18:30:38.283Z,7.22
2022-10-28T18:33:08.316Z,5.93
2022-10-28T18:35:40.701Z,5.80
2022-10-28T18:38:11.058Z,5.72
2022-10-28T18:40:49.430Z,6.07
2022-10-28T18:43:19.551Z,6.63
2022-10-28T18:45:49.941Z,5.68
2022-10-28T18:48:20.777Z,6.10
2022-10-28T18:51:00.449Z,6.25
2022-10-28T18:53:33.270Z,6.15
2022-10-28T18:56:10.528Z,6.35
2022-10-28T18:58:40.923Z,6.53
2022-10-28T19:01:20.083Z,7.15
2022-10-28T19:03:54.688Z,6.72
2022-10-28T19:06:26.136Z,6.82
2022-10-28T19:08:58.816Z,6.78
2022-10-28T19:11:33.618Z,6.38
2022-10-28T19:14:08.515Z,6.00
2022-10-28T19:16:38.697Z,6.63
2022-10-28T19:19:08.973Z,6.53
2022-10-28T19:21:39.122Z,6.15
2022-10-28T19:24:10.190Z,6.40
2022-10-28T19:26:42.897Z,5.70
2022-10-28T19:29:16.282Z,5.93
2022-10-28T19:31:46.338Z,6.50
2022-10-28T19:34:16.384Z,7.30
2022-10-28T19:36:46.418Z,7.90
2022-10-28T19:39:16.517Z,7.93
2022-10-28T19:41:49.839Z,8.57
2022-10-28T19:44:19.917Z,8.38
2022-10-28T19:46:52.796Z,8.48
2022-10-28T19:49:27.835Z,7.93
2022-10-28T19:51:59.965Z,7.15
2022-10-28T19:54:33.416Z,6.25
2022-10-28T19:57:08.956Z,7.10
2022-10-28T19:59:46.474Z,6.63
2022-10-28T20:02:16.616Z,6.82
2022-10-28T20:04:48.628Z,6.90
2022-10-28T20:07:23.422Z,7.05
2022-10-28T20:09:54.502Z,7.60
2022-10-28T20:12:27.233Z,9.30
2022-10-28T20:14:57.314Z,7.47
2022-10-28T20:17:27.365Z,10.50
2022-10-28T20:19:59.664Z,9.15
2022-10-28T20:22:39.850Z,9.48
2022-10-28T20:25:20.444Z,8.18
2022-10-28T20:28:01.989Z,7.32
2022-10-28T20:30:32.092Z,6.82
2022-10-28T20:33:02.189Z,7.72
2022-10-28T20:35:32.222Z,7.20
2022-10-28T20:38:02.392Z,8.10
2022-10-28T20:40:32.442Z,9.32
2022-10-28T20:43:05.109Z,7.95
2022-10-28T20:45:35.195Z,7.50
2022-10-28T20:48:08.723Z,8.65
2022-10-28T20:50:38.738Z,7.90
2022-10-28T20:53:11.661Z,7.07
2022-10-28T20:55:48.200Z,6.45
2022-10-28T20:58:24.031Z,6.43
2022-10-28T21:00:55.781Z,6.43
2022-10-28T21:03:25.933Z,7.68
2022-10-28T21:05:59.096Z,6.43
2022-10-28T21:11:18.108Z,7.60
2022-10-28T21:13:57.526Z,7.78
2022-10-28T21:16:29.842Z,7.18
2022-10-28T21:19:00.720Z,6.65
2022-10-28T21:21:33.887Z,6.70
2022-10-28T21:24:03.982Z,6.95
2022-10-28T21:26:36.524Z,6.68
2022-10-28T21:29:09.304Z,6.32
2022-10-28T21:31:39.436Z,6.13
2022-10-28T21:34:09.520Z,6.00
2022-10-28T21:36:39.598Z,7.07
2022-10-28T21:39:11.900Z,7.10
2022-10-28T21:41:41.991Z,7.03
2022-10-28T21:44:15.685Z,7.47
2022-10-28T21:46:47.905Z,7.85
2022-10-28T21:49:17.952Z,11.13
2022-10-28T21:51:48.049Z,8.10
2022-10-28T21:54:23.434Z,7.50
2022-10-28T21:56:53.738Z,8.63
2022-10-28T21:59:28.606Z,9.25
2022-10-28T22:01:58.799Z,8.48
2022-10-28T22:04:29.094Z,8.85
2022-10-28T22:07:01.982Z,8.25
2022-10-28T22:09:34.940Z,8.00
2022-10-28T22:12:08.794Z,8.82
2022-10-28T22:14:41.728Z,8.25
2022-10-28T22:17:11.884Z,8.00
2022-10-28T22:19:41.986Z,7.78
2022-10-28T22:22:12.068Z,7.90
2022-10-28T22:24:48.166Z,8.65
2022-10-28T22:27:18.259Z,7.30
2022-10-28T22:29:57.076Z,8.07
2022-10-28T22:32:27.215Z,7.15
2022-10-28T22:34:57.257Z,6.57
2022-10-28T22:37:27.378Z,6.40
2022-10-28T22:39:57.446Z,5.93
2022-10-28T22:42:30.071Z,7.13
2022-10-28T22:45:03.013Z,6.22
2022-10-28T22:47:35.633Z,6.78
2022-10-28T22:50:05.793Z,6.20
2022-10-28T22:52:38.633Z,6.15
2022-10-28T22:55:09.814Z,6.05
2022-10-28T22:57:39.918Z,6.75
2022-10-28T23:00:17.099Z,6.63
2022-10-28T23:02:47.571Z,6.50
2022-10-28T23:05:19.889Z,6.35
2022-10-28T23:07:52.327Z,7.43
2022-10-28T23:10:25.007Z,6.22
2022-10-28T23:13:01.157Z,6.90
2022-10-28T23:15:34.201Z,6.53
2022-10-28T23:18:07.729Z,6.97
2022-10-28T23:20:38.960Z,7.38
2022-10-28T23:23:09.334Z,7.03
2022-10-28T23:25:42.400Z,7.90
2022-10-28T23:28:15.543Z,8.07
2022-10-28T23:30:48.227Z,8.18
2022-10-28T23:33:21.426Z,7.80
2022-10-28T23:35:59.852Z,7.43
2022-10-28T23:38:33.533Z,6.97
2022-10-28T23:41:06.679Z,6.60
2022-10-28T23:43:37.892Z,6.68
2022-10-28T23:46:11.158Z,5.68
2022-10-28T23:48:41.513Z,6.45
2022-10-28T23:51:14.165Z,6.72
2022-10-28T23:53:44.251Z,6.55
2022-10-28T23:56:14.261Z,7.18
2022-10-28T23:58:44.305Z,6.13
